sensor_id;sensor_type;location;lat;lon;timestamp;pressure;altitude;pressure_sealevel;temperature;humidity
63006;BME280;53704;52.532;6.426;2023-05-09T00:01:34;101774.81;;;15.35;100.00
63006;BME280;53704;52.532;6.426;2023-05-09T00:03:59;101776.78;;;15.58;100.00
63006;BME280;53704;52.532;6.426;2023-05-09T00:06:25;101777.03;;;15.15;100.00
63006;BME280;53704;52.532;6.426;2023-05-09T00:08:52;101773.47;;;14.98;100.00
63006;BME280;53704;52.532;6.426;2023-05-09T00:11:18;101766.47;;;15.45;100.00
63006;BME280;53704;52.532;6.426;2023-05-09T00:13:44;101761.84;;;15.54;100.00
63006;BME280;53704;52.532;6.426;2023-05-09T00:16:10;101765.94;;;15.58;100.00
63006;BME280;53704;52.532;6.426;2023-05-09T00:18:36;101765.09;;;15.58;100.00
63006;BME280;53704;52.532;6.426;2023-05-09T00:21:02;101759.66;;;15.58;100.00
63006;BME280;53704;52.532;6.426;2023-05-09T00:23:29;101756.72;;;14.95;100.00
63006;BME280;53704;52.532;6.426;2023-05-09T00:25:55;101755.63;;;15.29;100.00
63006;BME280;53704;52.532;6.426;2023-05-09T00:28:20;101747.72;;;14.78;100.00
63006;BME280;53704;52.532;6.426;2023-05-09T00:30:46;101736.53;;;14.97;100.00
63006;BME280;53704;52.532;6.426;2023-05-09T00:33:11;101742.81;;;14.98;100.00
63006;BME280;53704;52.532;6.426;2023-05-09T00:35:36;101734.97;;;15.28;100.00
63006;BME280;53704;52.532;6.426;2023-05-09T00:38:02;101727.03;;;15.01;100.00
63006;BME280;53704;52.532;6.426;2023-05-09T00:40:28;101722.16;;;14.72;100.00
63006;BME280;53704;52.532;6.426;2023-05-09T00:42:53;101724.34;;;14.69;100.00
63006;BME280;53704;52.532;6.426;2023-05-09T00:45:22;101716.34;;;15.08;100.00
63006;BME280;53704;52.532;6.426;2023-05-09T00:47:47;101713.63;;;15.08;100.00
63006;BME280;53704;52.532;6.426;2023-05-09T00:50:13;101706.66;;;15.22;100.00
63006;BME280;53704;52.532;6.426;2023-05-09T00:52:39;101704.84;;;14.98;100.00
63006;BME280;53704;52.532;6.426;2023-05-09T00:55:06;101704.69;;;14.99;100.00
63006;BME280;53704;52.532;6.426;2023-05-09T00:57:32;101696.47;;;15.24;100.00
63006;BME280;53704;52.532;6.426;2023-05-09T00:59:59;101691.41;;;15.13;100.00
63006;BME280;53704;52.532;6.426;2023-05-09T01:02:25;101682.13;;;15.07;100.00
63006;BME280;53704;52.532;6.426;2023-05-09T01:04:51;101667.41;;;14.77;100.00
63006;BME280;53704;52.532;6.426;2023-05-09T01:07:34;101674.72;;;14.60;100.00
63006;BME280;53704;52.532;6.426;2023-05-09T01:10:11;101672.69;;;14.70;100.00
63006;BME280;53704;52.532;6.426;2023-05-09T01:15:58;101678.41;;;14.59;100.00
63006;BME280;53704;52.532;6.426;2023-05-09T01:20:42;101659.44;;;14.92;100.00
63006;BME280;53704;52.532;6.426;2023-05-09T01:31:21;101655.19;;;14.97;100.00
63006;BME280;53704;52.532;6.426;2023-05-09T01:33:53;101657.34;;;15.18;100.00
63006;BME280;53704;52.532;6.426;2023-05-09T01:36:20;101658.78;;;14.90;100.00
63006;BME280;53704;52.532;6.426;2023-05-09T01:38:47;101655.69;;;15.01;100.00
63006;BME280;53704;52.532;6.426;2023-05-09T01:41:16;101652.13;;;15.09;100.00
63006;BME280;53704;52.532;6.426;2023-05-09T01:43:42;101652.28;;;14.99;100.00
63006;BME280;53704;52.532;6.426;2023-05-09T01:46:10;101649.75;;;15.06;100.00
63006;BME280;53704;52.532;6.426;2023-05-09T01:48:37;101651.09;;;15.10;100.00
63006;BME280;53704;52.532;6.426;2023-05-09T01:51:06;101653.53;;;14.72;100.00
63006;BME280;53704;52.532;6.426;2023-05-09T01:53:34;101645.56;;;14.87;100.00
63006;BME280;53704;52.532;6.426;2023-05-09T01:56:03;101650.63;;;14.98;100.00
63006;BME280;53704;52.532;6.426;2023-05-09T01:58:31;101647.38;;;15.11;100.00
63006;BME280;53704;52.532;6.426;2023-05-09T02:00:59;101644.16;;;15.07;100.00
63006;BME280;53704;52.532;6.426;2023-05-09T02:03:24;101646.19;;;15.13;100.00
63006;BME280;53704;52.532;6.426;2023-05-09T02:05:51;101638.13;;;14.80;100.00
63006;BME280;53704;52.532;6.426;2023-05-09T02:08:18;101636.91;;;14.99;100.00
63006;BME280;53704;52.532;6.426;2023-05-09T02:10:47;101634.72;;;14.87;100.00
63006;BME280;53704;52.532;6.426;2023-05-09T02:13:12;101633.69;;;14.88;100.00
63006;BME280;53704;52.532;6.426;2023-05-09T02:15:38;101638.06;;;15.05;100.00
63006;BME280;53704;52.532;6.426;2023-05-09T02:18:04;101633.34;;;14.91;100.00
63006;BME280;53704;52.532;6.426;2023-05-09T02:20:29;101631.50;;;14.75;100.00
63006;BME280;53704;52.532;6.426;2023-05-09T02:22:55;101632.47;;;14.98;100.00
63006;BME280;53704;52.532;6.426;2023-05-09T02:25:20;101629.91;;;15.13;100.00
63006;BME280;53704;52.532;6.426;2023-05-09T02:27:46;101620.47;;;14.93;100.00
63006;BME280;53704;52.532;6.426;2023-05-09T02:30:17;101622.66;;;14.97;100.00
63006;BME280;53704;52.532;6.426;2023-05-09T02:32:46;101630.13;;;14.95;100.00
63006;BME280;53704;52.532;6.426;2023-05-09T02:35:15;101626.94;;;14.83;100.00
63006;BME280;53704;52.532;6.426;2023-05-09T02:37:41;101624.22;;;14.83;100.00
63006;BME280;53704;52.532;6.426;2023-05-09T02:40:09;101622.34;;;14.51;100.00
63006;BME280;53704;52.532;6.426;2023-05-09T02:42:35;101623.91;;;14.45;100.00
63006;BME280;53704;52.532;6.426;2023-05-09T02:45:01;101625.06;;;14.59;100.00
63006;BME280;53704;52.532;6.426;2023-05-09T02:47:27;101624.22;;;14.59;100.00
63006;BME280;53704;52.532;6.426;2023-05-09T02:49:52;101625.28;;;14.66;100.00
63006;BME280;53704;52.532;6.426;2023-05-09T02:52:17;101624.22;;;14.75;100.00
63006;BME280;53704;52.532;6.426;2023-05-09T02:54:44;101619.66;;;14.76;100.00
63006;BME280;53704;52.532;6.426;2023-05-09T02:57:09;101618.97;;;14.57;100.00
63006;BME280;53704;52.532;6.426;2023-05-09T02:59:35;101614.91;;;14.78;100.00
63006;BME280;53704;52.532;6.426;2023-05-09T03:02:00;101609.97;;;14.81;100.00
63006;BME280;53704;52.532;6.426;2023-05-09T03:04:26;101599.47;;;14.87;100.00
63006;BME280;53704;52.532;6.426;2023-05-09T03:06:51;101602.69;;;14.90;100.00
63006;BME280;53704;52.532;6.426;2023-05-09T03:09:17;101600.47;;;14.94;100.00
63006;BME280;53704;52.532;6.426;2023-05-09T03:11:42;101593.06;;;14.71;100.00
63006;BME280;53704;52.532;6.426;2023-05-09T03:14:08;101592.19;;;14.87;100.00
63006;BME280;53704;52.532;6.426;2023-05-09T03:16:35;101593.72;;;14.90;100.00
63006;BME280;53704;52.532;6.426;2023-05-09T03:19:00;101585.53;;;15.06;100.00
63006;BME280;53704;52.532;6.426;2023-05-09T03:21:29;101582.97;;;15.05;100.00
63006;BME280;53704;52.532;6.426;2023-05-09T03:23:56;101578.75;;;15.10;100.00
63006;BME280;53704;52.532;6.426;2023-05-09T03:26:21;101569.59;;;15.03;100.00
63006;BME280;53704;52.532;6.426;2023-05-09T03:28:47;101578.00;;;14.69;100.00
63006;BME280;53704;52.532;6.426;2023-05-09T03:31:13;101563.16;;;14.96;100.00
63006;BME280;53704;52.532;6.426;2023-05-09T03:33:39;101558.78;;;14.95;100.00
63006;BME280;53704;52.532;6.426;2023-05-09T03:36:04;101566.78;;;14.80;100.00
63006;BME280;53704;52.532;6.426;2023-05-09T03:38:30;101556.81;;;14.56;100.00
63006;BME280;53704;52.532;6.426;2023-05-09T03:40:55;101558.66;;;14.88;100.00
63006;BME280;53704;52.532;6.426;2023-05-09T03:43:21;101559.75;;;15.02;100.00
63006;BME280;53704;52.532;6.426;2023-05-09T03:45:46;101556.97;;;14.79;100.00
63006;BME280;53704;52.532;6.426;2023-05-09T03:48:11;101560.38;;;14.73;100.00
63006;BME280;53704;52.532;6.426;2023-05-09T03:50:37;101555.41;;;14.93;100.00
63006;BME280;53704;52.532;6.426;2023-05-09T03:53:03;101550.50;;;14.80;100.00
63006;BME280;53704;52.532;6.426;2023-05-09T03:55:29;101552.72;;;14.84;100.00
63006;BME280;53704;52.532;6.426;2023-05-09T03:57:54;101549.13;;;14.92;100.00
63006;BME280;53704;52.532;6.426;2023-05-09T04:00:20;101547.16;;;14.78;100.00
63006;BME280;53704;52.532;6.426;2023-05-09T04:02:49;101546.31;;;14.77;100.00
63006;BME280;53704;52.532;6.426;2023-05-09T04:05:15;101542.91;;;14.75;100.00
63006;BME280;53704;52.532;6.426;2023-05-09T04:07:40;101549.00;;;14.86;100.00
63006;BME280;53704;52.532;6.426;2023-05-09T04:10:07;101545.97;;;14.80;100.00
63006;BME280;53704;52.532;6.426;2023-05-09T04:12:32;101542.56;;;14.87;100.00
63006;BME280;53704;52.532;6.426;2023-05-09T04:14:58;101541.81;;;15.01;100.00
63006;BME280;53704;52.532;6.426;2023-05-09T04:17:23;101535.25;;;14.87;100.00
63006;BME280;53704;52.532;6.426;2023-05-09T04:19:49;101540.22;;;14.67;100.00
63006;BME280;53704;52.532;6.426;2023-05-09T04:22:14;101535.97;;;14.81;100.00
63006;BME280;53704;52.532;6.426;2023-05-09T04:24:40;101541.81;;;15.01;100.00
63006;BME280;53704;52.532;6.426;2023-05-09T04:27:06;101527.69;;;14.74;100.00
63006;BME280;53704;52.532;6.426;2023-05-09T04:29:32;101542.56;;;14.87;100.00
63006;BME280;53704;52.532;6.426;2023-05-09T04:31:57;101539.19;;;14.76;100.00
63006;BME280;53704;52.532;6.426;2023-05-09T04:34:23;101535.88;;;14.97;100.00
63006;BME280;53704;52.532;6.426;2023-05-09T04:36:50;101528.50;;;14.75;100.00
63006;BME280;53704;52.532;6.426;2023-05-09T04:39:16;101535.53;;;14.28;100.00
63006;BME280;53704;52.532;6.426;2023-05-09T04:41:41;101532.28;;;14.74;100.00
63006;BME280;53704;52.532;6.426;2023-05-09T04:44:09;101534.78;;;14.83;100.00
63006;BME280;53704;52.532;6.426;2023-05-09T04:46:34;101536.16;;;14.55;100.00
63006;BME280;53704;52.532;6.426;2023-05-09T04:49:00;101529.22;;;14.69;100.00
63006;BME280;53704;52.532;6.426;2023-05-09T04:51:25;101522.94;;;14.76;100.00
63006;BME280;53704;52.532;6.426;2023-05-09T04:53:51;101524.13;;;14.65;100.00
63006;BME280;53704;52.532;6.426;2023-05-09T04:56:16;101519.19;;;14.77;100.00
63006;BME280;53704;52.532;6.426;2023-05-09T04:58:42;101517.84;;;14.73;100.00
63006;BME280;53704;52.532;6.426;2023-05-09T05:01:07;101515.09;;;14.81;100.00
63006;BME280;53704;52.532;6.426;2023-05-09T05:03:32;101506.72;;;14.60;100.00
63006;BME280;53704;52.532;6.426;2023-05-09T05:05:58;101507.22;;;14.63;100.00
63006;BME280;53704;52.532;6.426;2023-05-09T05:08:23;101506.34;;;14.55;100.00
63006;BME280;53704;52.532;6.426;2023-05-09T05:10:49;101501.13;;;14.61;100.00
63006;BME280;53704;52.532;6.426;2023-05-09T05:13:15;101497.56;;;15.00;100.00
63006;BME280;53704;52.532;6.426;2023-05-09T05:15:41;101507.25;;;14.47;100.00
63006;BME280;53704;52.532;6.426;2023-05-09T05:18:06;101507.31;;;14.78;100.00
63006;BME280;53704;52.532;6.426;2023-05-09T05:20:32;101496.19;;;14.57;100.00
63006;BME280;53704;52.532;6.426;2023-05-09T05:22:57;101500.59;;;14.58;100.00
63006;BME280;53704;52.532;6.426;2023-05-09T05:25:24;101500.28;;;14.69;100.00
63006;BME280;53704;52.532;6.426;2023-05-09T05:27:49;101500.69;;;14.89;100.00
63006;BME280;53704;52.532;6.426;2023-05-09T05:30:15;101495.13;;;14.82;100.00
63006;BME280;53704;52.532;6.426;2023-05-09T05:32:40;101490.69;;;14.90;100.00
63006;BME280;53704;52.532;6.426;2023-05-09T05:35:06;101494.78;;;14.86;100.00
63006;BME280;53704;52.532;6.426;2023-05-09T05:37:32;101485.00;;;15.08;100.00
63006;BME280;53704;52.532;6.426;2023-05-09T05:39:57;101480.94;;;15.04;100.00
63006;BME280;53704;52.532;6.426;2023-05-09T05:42:23;101480.69;;;15.22;100.00
63006;BME280;53704;52.532;6.426;2023-05-09T05:44:48;101481.84;;;15.27;100.00
63006;BME280;53704;52.532;6.426;2023-05-09T05:47:14;101479.91;;;15.13;100.00
63006;BME280;53704;52.532;6.426;2023-05-09T05:49:39;101480.03;;;15.19;100.00
63006;BME280;53704;52.532;6.426;2023-05-09T05:52:04;101478.78;;;15.30;100.00
63006;BME280;53704;52.532;6.426;2023-05-09T05:54:30;101481.00;;;15.27;100.00
63006;BME280;53704;52.532;6.426;2023-05-09T05:56:55;101476.94;;;15.23;100.00
63006;BME280;53704;52.532;6.426;2023-05-09T05:59:21;101473.53;;;15.29;100.00
63006;BME280;53704;52.532;6.426;2023-05-09T06:01:46;101470.47;;;15.32;100.00
63006;BME280;53704;52.532;6.426;2023-05-09T06:04:12;101466.38;;;15.05;100.00
63006;BME280;53704;52.532;6.426;2023-05-09T06:06:37;101469.69;;;15.23;100.00
63006;BME280;53704;52.532;6.426;2023-05-09T06:09:03;101459.59;;;15.32;100.00
63006;BME280;53704;52.532;6.426;2023-05-09T06:11:28;101461.72;;;15.45;100.00
63006;BME280;53704;52.532;6.426;2023-05-09T06:13:53;101452.91;;;15.43;100.00
63006;BME280;53704;52.532;6.426;2023-05-09T06:16:19;101450.28;;;15.58;100.00
63006;BME280;53704;52.532;6.426;2023-05-09T06:18:45;101455.38;;;15.52;100.00
63006;BME280;53704;52.532;6.426;2023-05-09T06:21:11;101455.28;;;15.46;100.00
63006;BME280;53704;52.532;6.426;2023-05-09T06:23:36;101445.81;;;15.65;100.00
63006;BME280;53704;52.532;6.426;2023-05-09T06:26:02;101459.88;;;15.45;100.00
63006;BME280;53704;52.532;6.426;2023-05-09T06:28:28;101454.00;;;15.56;100.00
63006;BME280;53704;52.532;6.426;2023-05-09T06:30:53;101441.53;;;15.47;100.00
63006;BME280;53704;52.532;6.426;2023-05-09T06:33:19;101443.88;;;15.50;100.00
63006;BME280;53704;52.532;6.426;2023-05-09T06:35:44;101429.94;;;15.53;100.00
63006;BME280;53704;52.532;6.426;2023-05-09T06:38:10;101432.56;;;15.47;100.00
63006;BME280;53704;52.532;6.426;2023-05-09T06:40:35;101419.28;;;15.52;100.00
63006;BME280;53704;52.532;6.426;2023-05-09T06:43:01;101416.09;;;15.48;100.00
63006;BME280;53704;52.532;6.426;2023-05-09T06:45:26;101412.22;;;15.43;100.00
63006;BME280;53704;52.532;6.426;2023-05-09T06:47:52;101423.25;;;15.41;100.00
63006;BME280;53704;52.532;6.426;2023-05-09T06:50:17;101411.44;;;15.57;100.00
63006;BME280;53704;52.532;6.426;2023-05-09T06:52:42;101402.75;;;15.38;100.00
63006;BME280;53704;52.532;6.426;2023-05-09T06:55:08;101401.31;;;15.51;100.00
63006;BME280;53704;52.532;6.426;2023-05-09T06:57:34;101394.88;;;15.67;100.00
63006;BME280;53704;52.532;6.426;2023-05-09T07:00:00;101394.69;;;15.77;100.00
63006;BME280;53704;52.532;6.426;2023-05-09T07:02:25;101392.94;;;15.76;100.00
63006;BME280;53704;52.532;6.426;2023-05-09T07:04:51;101384.81;;;15.76;100.00
63006;BME280;53704;52.532;6.426;2023-05-09T07:07:16;101376.69;;;15.90;100.00
63006;BME280;53704;52.532;6.426;2023-05-09T07:09:41;101379.25;;;16.07;100.00
63006;BME280;53704;52.532;6.426;2023-05-09T07:12:07;101381.03;;;16.15;100.00
63006;BME280;53704;52.532;6.426;2023-05-09T07:14:32;101372.13;;;16.36;100.00
63006;BME280;53704;52.532;6.426;2023-05-09T07:16:58;101369.78;;;16.33;100.00
63006;BME280;53704;52.532;6.426;2023-05-09T07:19:23;101364.56;;;16.16;100.00
63006;BME280;53704;52.532;6.426;2023-05-09T07:21:49;101372.16;;;16.21;100.00
63006;BME280;53704;52.532;6.426;2023-05-09T07:24:14;101360.81;;;16.02;100.00
63006;BME280;53704;52.532;6.426;2023-05-09T07:26:40;101363.03;;;16.28;100.00
63006;BME280;53704;52.532;6.426;2023-05-09T07:29:05;101368.56;;;16.20;100.00
63006;BME280;53704;52.532;6.426;2023-05-09T07:31:31;101371.94;;;16.22;100.00
63006;BME280;53704;52.532;6.426;2023-05-09T07:33:56;101363.78;;;16.37;100.00
63006;BME280;53704;52.532;6.426;2023-05-09T07:36:22;101359.47;;;16.28;100.00
63006;BME280;53704;52.532;6.426;2023-05-09T07:38:47;101364.81;;;16.06;100.00
63006;BME280;53704;52.532;6.426;2023-05-09T07:41:14;101358.34;;;16.22;100.00
63006;BME280;53704;52.532;6.426;2023-05-09T07:43:40;101363.34;;;16.34;100.00
63006;BME280;53704;52.532;6.426;2023-05-09T07:46:05;101352.63;;;16.47;100.00
63006;BME280;53704;52.532;6.426;2023-05-09T07:48:31;101350.56;;;16.34;100.00
63006;BME280;53704;52.532;6.426;2023-05-09T07:50:56;101349.88;;;16.62;100.00
63006;BME280;53704;52.532;6.426;2023-05-09T07:53:22;101338.53;;;16.58;100.00
63006;BME280;53704;52.532;6.426;2023-05-09T07:55:47;101335.69;;;16.67;100.00
63006;BME280;53704;52.532;6.426;2023-05-09T07:58:17;101339.53;;;16.72;100.00
63006;BME280;53704;52.532;6.426;2023-05-09T08:00:42;101335.13;;;16.86;100.00
63006;BME280;53704;52.532;6.426;2023-05-09T08:03:08;101328.25;;;16.90;100.00
63006;BME280;53704;52.532;6.426;2023-05-09T08:05:33;101333.16;;;16.65;100.00
63006;BME280;53704;52.532;6.426;2023-05-09T08:07:59;101326.19;;;16.77;100.00
63006;BME280;53704;52.532;6.426;2023-05-09T08:10:24;101314.16;;;17.02;100.00
63006;BME280;53704;52.532;6.426;2023-05-09T08:12:51;101312.31;;;17.09;100.00
63006;BME280;53704;52.532;6.426;2023-05-09T08:15:17;101311.44;;;17.02;100.00
63006;BME280;53704;52.532;6.426;2023-05-09T08:17:42;101308.31;;;17.05;100.00
63006;BME280;53704;52.532;6.426;2023-05-09T08:20:08;101302.22;;;17.03;100.00
63006;BME280;53704;52.532;6.426;2023-05-09T08:22:37;101303.13;;;17.10;100.00
63006;BME280;53704;52.532;6.426;2023-05-09T08:25:03;101296.97;;;17.23;100.00
63006;BME280;53704;52.532;6.426;2023-05-09T08:27:29;101290.78;;;17.35;100.00
63006;BME280;53704;52.532;6.426;2023-05-09T08:29:54;101291.41;;;17.38;100.00
63006;BME280;53704;52.532;6.426;2023-05-09T08:32:20;101286.47;;;17.20;100.00
63006;BME280;53704;52.532;6.426;2023-05-09T08:34:45;101288.69;;;17.38;100.00
63006;BME280;53704;52.532;6.426;2023-05-09T08:37:11;101286.47;;;17.48;100.00
63006;BME280;53704;52.532;6.426;2023-05-09T08:39:36;101276.88;;;17.52;100.00
63006;BME280;53704;52.532;6.426;2023-05-09T08:42:02;101273.63;;;17.63;100.00
63006;BME280;53704;52.532;6.426;2023-05-09T08:44:29;101278.75;;;17.86;100.00
63006;BME280;53704;52.532;6.426;2023-05-09T08:46:58;101270.72;;;17.71;100.00
63006;BME280;53704;52.532;6.426;2023-05-09T08:49:24;101268.19;;;17.98;100.00
63006;BME280;53704;52.532;6.426;2023-05-09T08:51:50;101260.47;;;18.08;100.00
63006;BME280;53704;52.532;6.426;2023-05-09T08:54:17;101268.72;;;17.87;100.00
63006;BME280;53704;52.532;6.426;2023-05-09T08:56:43;101267.81;;;18.15;100.00
63006;BME280;53704;52.532;6.426;2023-05-09T08:59:08;101256.09;;;18.21;100.00
63006;BME280;53704;52.532;6.426;2023-05-09T09:01:34;101260.75;;;18.27;100.00
63006;BME280;53704;52.532;6.426;2023-05-09T09:04:02;101255.38;;;18.47;100.00
63006;BME280;53704;52.532;6.426;2023-05-09T09:06:34;101250.25;;;18.31;100.00
63006;BME280;53704;52.532;6.426;2023-05-09T09:09:01;101253.28;;;18.56;100.00
63006;BME280;53704;52.532;6.426;2023-05-09T09:11:30;101243.72;;;18.87;100.00
63006;BME280;53704;52.532;6.426;2023-05-09T09:14:00;101240.06;;;18.53;100.00
63006;BME280;53704;52.532;6.426;2023-05-09T09:16:27;101240.69;;;18.55;100.00
63006;BME280;53704;52.532;6.426;2023-05-09T09:18:54;101235.25;;;18.81;100.00
63006;BME280;53704;52.532;6.426;2023-05-09T09:21:20;101231.47;;;18.62;100.00
63006;BME280;53704;52.532;6.426;2023-05-09T09:23:48;101227.91;;;18.69;100.00
63006;BME280;53704;52.532;6.426;2023-05-09T09:26:13;101226.03;;;18.83;100.00
63006;BME280;53704;52.532;6.426;2023-05-09T09:28:40;101232.78;;;18.93;100.00
63006;BME280;53704;52.532;6.426;2023-05-09T09:31:38;101221.25;;;19.05;100.00
63006;BME280;53704;52.532;6.426;2023-05-09T09:34:07;101224.16;;;18.63;100.00
63006;BME280;53704;52.532;6.426;2023-05-09T09:36:33;101213.91;;;18.85;100.00
63006;BME280;53704;52.532;6.426;2023-05-09T09:39:02;101221.84;;;18.73;100.00
63006;BME280;53704;52.532;6.426;2023-05-09T09:41:35;101217.06;;;18.89;100.00
63006;BME280;53704;52.532;6.426;2023-05-09T09:44:15;101204.63;;;19.33;100.00
63006;BME280;53704;52.532;6.426;2023-05-09T09:46:42;101206.78;;;19.04;100.00
63006;BME280;53704;52.532;6.426;2023-05-09T09:49:19;101203.16;;;19.44;100.00
63006;BME280;53704;52.532;6.426;2023-05-09T09:51:55;101203.78;;;19.26;100.00
63006;BME280;53704;52.532;6.426;2023-05-09T09:54:22;101199.75;;;19.55;100.00
63006;BME280;53704;52.532;6.426;2023-05-09T09:56:50;101197.81;;;19.69;100.00
63006;BME280;53704;52.532;6.426;2023-05-09T09:59:20;101202.91;;;19.52;100.00
63006;BME280;53704;52.532;6.426;2023-05-09T10:02:00;101190.66;;;19.81;100.00
63006;BME280;53704;52.532;6.426;2023-05-09T10:04:28;101188.44;;;19.51;100.00
63006;BME280;53704;52.532;6.426;2023-05-09T10:07:00;101186.03;;;19.82;100.00
63006;BME280;53704;52.532;6.426;2023-05-09T10:09:27;101181.72;;;20.06;100.00
63006;BME280;53704;52.532;6.426;2023-05-09T10:11:54;101190.22;;;19.84;100.00
63006;BME280;53704;52.532;6.426;2023-05-09T10:14:24;101194.47;;;19.60;100.00
63006;BME280;53704;52.532;6.426;2023-05-09T10:16:53;101189.16;;;19.85;100.00
63006;BME280;53704;52.532;6.426;2023-05-09T10:19:20;101184.59;;;19.66;100.00
63006;BME280;53704;52.532;6.426;2023-05-09T10:21:54;101185.94;;;19.37;100.00
63006;BME280;53704;52.532;6.426;2023-05-09T10:24:46;101176.50;;;19.98;100.00
63006;BME280;53704;52.532;6.426;2023-05-09T10:27:12;101177.72;;;19.43;100.00
63006;BME280;53704;52.532;6.426;2023-05-09T10:29:50;101174.38;;;20.00;100.00
63006;BME280;53704;52.532;6.426;2023-05-09T10:32:31;101178.19;;;19.99;100.00
63006;BME280;53704;52.532;6.426;2023-05-09T10:35:07;101175.00;;;20.02;100.00
63006;BME280;53704;52.532;6.426;2023-05-09T10:37:35;101164.28;;;20.07;100.00
63006;BME280;53704;52.532;6.426;2023-05-09T10:40:03;101165.97;;;20.40;100.00
63006;BME280;53704;52.532;6.426;2023-05-09T10:42:29;101160.72;;;20.38;100.00
63006;BME280;53704;52.532;6.426;2023-05-09T10:44:56;101158.44;;;20.29;100.00
63006;BME280;53704;52.532;6.426;2023-05-09T10:47:24;101146.34;;;20.18;100.00
63006;BME280;53704;52.532;6.426;2023-05-09T10:49:51;101149.72;;;20.13;100.00
63006;BME280;53704;52.532;6.426;2023-05-09T10:52:17;101143.03;;;20.09;100.00
63006;BME280;53704;52.532;6.426;2023-05-09T10:54:43;101143.28;;;20.33;100.00
63006;BME280;53704;52.532;6.426;2023-05-09T10:57:08;101143.44;;;20.38;100.00
63006;BME280;53704;52.532;6.426;2023-05-09T10:59:39;101149.63;;;19.95;100.00
63006;BME280;53704;52.532;6.426;2023-05-09T11:02:12;101141.78;;;20.37;100.00
63006;BME280;53704;52.532;6.426;2023-05-09T11:04:38;101140.56;;;20.58;100.00
63006;BME280;53704;52.532;6.426;2023-05-09T11:07:22;101130.13;;;20.48;100.00
63006;BME280;53704;52.532;6.426;2023-05-09T11:10:27;101126.31;;;20.24;100.00
63006;BME280;53704;52.532;6.426;2023-05-09T11:13:08;101122.25;;;20.58;100.00
63006;BME280;53704;52.532;6.426;2023-05-09T11:15:35;101113.34;;;20.70;100.00
63006;BME280;53704;52.532;6.426;2023-05-09T11:18:13;101114.94;;;20.84;100.00
63006;BME280;53704;52.532;6.426;2023-05-09T11:20:43;101111.00;;;20.99;100.00
63006;BME280;53704;52.532;6.426;2023-05-09T11:23:15;101098.50;;;21.03;100.00
63006;BME280;53704;52.532;6.426;2023-05-09T11:25:45;101099.19;;;20.80;100.00
63006;BME280;53704;52.532;6.426;2023-05-09T11:28:25;101096.22;;;20.81;100.00
63006;BME280;53704;52.532;6.426;2023-05-09T11:30:52;101092.63;;;20.55;100.00
63006;BME280;53704;52.532;6.426;2023-05-09T11:33:26;101088.03;;;20.24;100.00
63006;BME280;53704;52.532;6.426;2023-05-09T11:36:13;101078.72;;;20.57;100.00
63006;BME280;53704;52.532;6.426;2023-05-09T11:38:42;101084.34;;;20.12;100.00
63006;BME280;53704;52.532;6.426;2023-05-09T11:41:08;101077.84;;;20.38;100.00
63006;BME280;53704;52.532;6.426;2023-05-09T11:43:37;101079.34;;;20.34;100.00
63006;BME280;53704;52.532;6.426;2023-05-09T11:46:03;101075.31;;;20.36;100.00
63006;BME280;53704;52.532;6.426;2023-05-09T11:48:30;101077.22;;;20.36;100.00
63006;BME280;53704;52.532;6.426;2023-05-09T11:50:55;101072.25;;;20.26;100.00
63006;BME280;53704;52.532;6.426;2023-05-09T11:53:21;101070.94;;;20.35;100.00
63006;BME280;53704;52.532;6.426;2023-05-09T11:55:47;101072.31;;;20.45;100.00
63006;BME280;53704;52.532;6.426;2023-05-09T11:58:13;101064.44;;;20.04;100.00
63006;BME280;53704;52.532;6.426;2023-05-09T12:00:45;101061.28;;;20.33;100.00
63006;BME280;53704;52.532;6.426;2023-05-09T12:03:10;101067.09;;;20.43;100.00
63006;BME280;53704;52.532;6.426;2023-05-09T12:05:39;101070.75;;;20.30;100.00
63006;BME280;53704;52.532;6.426;2023-05-09T12:08:05;101067.13;;;19.73;100.00
63006;BME280;53704;52.532;6.426;2023-05-09T12:10:31;101058.97;;;20.04;100.00
63006;BME280;53704;52.532;6.426;2023-05-09T12:12:57;101060.78;;;19.85;100.00
63006;BME280;53704;52.532;6.426;2023-05-09T12:15:22;101063.16;;;20.07;100.00
63006;BME280;53704;52.532;6.426;2023-05-09T12:18:06;101053.00;;;19.82;100.00
63006;BME280;53704;52.532;6.426;2023-05-09T12:20:47;101055.06;;;20.19;100.00
63006;BME280;53704;52.532;6.426;2023-05-09T12:23:14;101044.19;;;20.37;100.00
63006;BME280;53704;52.532;6.426;2023-05-09T12:26:00;101039.59;;;20.06;100.00
63006;BME280;53704;52.532;6.426;2023-05-09T12:28:25;101046.50;;;19.83;100.00
63006;BME280;53704;52.532;6.426;2023-05-09T12:30:52;101045.06;;;20.06;100.00
63006;BME280;53704;52.532;6.426;2023-05-09T12:33:18;101036.78;;;20.19;100.00
63006;BME280;53704;52.532;6.426;2023-05-09T12:35:50;101038.03;;;19.92;100.00
63006;BME280;53704;52.532;6.426;2023-05-09T12:38:24;101043.47;;;19.60;100.00
63006;BME280;53704;52.532;6.426;2023-05-09T12:41:00;101039.94;;;19.91;100.00
63006;BME280;53704;52.532;6.426;2023-05-09T12:43:29;101037.88;;;19.86;100.00
63006;BME280;53704;52.532;6.426;2023-05-09T12:45:54;101041.91;;;19.77;100.00
63006;BME280;53704;52.532;6.426;2023-05-09T12:48:21;101032.19;;;19.81;100.00
63006;BME280;53704;52.532;6.426;2023-05-09T12:50:47;101041.84;;;19.45;100.00
63006;BME280;53704;52.532;6.426;2023-05-09T12:53:22;101039.53;;;18.90;100.00
63006;BME280;53704;52.532;6.426;2023-05-09T12:55:48;101036.94;;;19.15;100.00